Time;durP1;ratioP1;P1;durP2;ratioP2;P2;SDS_P1;SDS_P2;PMS_P1;PMS_P2;Temp;Humidity;BMP_temperature;BMP_pressure;BME280_temperature;BME280_humidity;BME280_pressure;Samples;Min_cycle;Max_cycle;Signal;HPM_P1;HPM_P2
2021/08/04 00:03:55;;;;;;;;;;;14.60;99.90;;;13.59;100.00;95620.53;10279503;28;2328;-76
2021/08/04 00:09:09;;;;;;;;;;;14.60;99.90;;;13.66;100.00;95620.97;10289651;28;2736;-76
2021/08/04 00:14:12;;;;;;;;;;;14.60;99.90;;;13.61;100.00;95629.13;10293145;28;2272;-75
2021/08/04 00:19:15;;;;;;;;;;;14.70;99.90;;;13.57;100.00;95628.94;10288095;28;2340;-75
2021/08/04 00:24:18;;;;;;;;;;;14.60;99.90;;;13.66;100.00;95619.06;10292815;28;2337;-78
2021/08/04 00:29:20;;;;;;;;;;;14.60;99.90;;;13.80;100.00;95619.06;10294413;28;2299;-77
2021/08/04 00:34:23;;;;;;;;;;;14.70;99.90;;;13.63;100.00;95621.56;10299897;28;2284;-77
2021/08/04 00:39:26;;;;;;;;;;;14.70;99.90;;;13.66;100.00;95619.06;10285189;28;2381;-76
2021/08/04 00:44:28;;;;;;;;;;;14.70;99.90;;;13.63;100.00;95632.38;10277928;28;2310;-76
2021/08/04 00:49:32;;;;;;;;;;;14.70;99.90;;;13.61;100.00;95634.53;10263388;28;2369;-75
2021/08/04 00:54:34;;;;;;;;;;;14.60;99.90;;;13.56;100.00;95621.16;10278542;28;2393;-76
2021/08/04 00:59:37;;;;;;;;;;;14.60;99.90;;;13.53;100.00;95625.22;10276128;28;2440;-77
2021/08/04 01:04:40;;;;;;;;;;;14.50;99.90;;;13.49;100.00;95625.03;10266115;28;2454;-76
2021/08/04 01:09:43;;;;;;;;;;;14.50;99.90;;;13.48;100.00;95634.19;10279781;28;2233;-75
2021/08/04 01:14:45;;;;;;;;;;;14.40;99.90;;;13.41;100.00;95641.88;10289858;28;2269;-76
2021/08/04 01:20:02;;;;;;;;;;;14.40;99.90;;;13.43;100.00;95633.50;10266261;28;2388;-76
2021/08/04 01:25:05;;;;;;;;;;;14.40;99.90;;;13.33;100.00;95622.84;10272247;28;2245;-78
2021/08/04 01:30:07;;;;;;;;;;;14.30;99.90;;;13.32;100.00;95622.06;10282180;28;2269;-76
2021/08/04 01:35:10;;;;;;;;;;;14.20;99.90;;;13.33;100.00;95634.47;10273050;28;2425;-77
2021/08/04 01:40:13;;;;;;;;;;;14.20;99.90;;;13.32;100.00;95626.66;10277863;28;2301;-76
2021/08/04 01:45:16;;;;;;;;;;;14.20;99.90;;;13.25;100.00;95621.63;10290006;28;2253;-77
2021/08/04 01:50:18;;;;;;;;;;;14.20;99.90;;;13.25;100.00;95622.44;10282996;28;2215;-77
2021/08/04 01:55:21;;;;;;;;;;;14.20;99.90;;;13.22;100.00;95622.22;10292730;28;2463;-77
2021/08/04 02:00:24;;;;;;;;;;;14.20;99.90;;;13.22;100.00;95611.41;10263264;28;2469;-77
2021/08/04 02:05:26;;;;;;;;;;;14.20;99.90;;;13.29;100.00;95609.13;10270947;28;2675;-77
2021/08/04 02:10:29;;;;;;;;;;;14.20;99.90;;;13.29;100.00;95603.72;10282506;28;2503;-77
2021/08/04 02:15:32;;;;;;;;;;;14.20;99.90;;;13.20;100.00;95597.38;10272725;28;2468;-76
2021/08/04 02:20:37;;;;;;;;;;;14.20;99.90;;;13.33;100.00;95601.25;10273922;28;2551;-77
2021/08/04 02:25:39;;;;;;;;;;;14.20;99.90;;;13.31;100.00;95606.97;10271698;28;2474;-76
2021/08/04 02:30:42;;;;;;;;;;;14.30;99.90;;;13.29;100.00;95606.44;10263803;28;2531;-76
2021/08/04 02:35:45;;;;;;;;;;;14.30;99.90;;;13.28;100.00;95602.13;10283078;28;2477;-76
2021/08/04 02:40:47;;;;;;;;;;;14.20;99.90;;;13.36;100.00;95596.09;10283397;28;2791;-78
2021/08/04 02:45:50;;;;;;;;;;;14.30;99.90;;;13.21;100.00;95599.00;10263221;28;2585;-78
2021/08/04 02:50:53;;;;;;;;;;;14.20;99.90;;;13.19;100.00;95599.28;10276780;28;2618;-75
2021/08/04 02:55:56;;;;;;;;;;;14.20;99.90;;;13.20;100.00;95597.38;10270746;28;2484;-77
2021/08/04 03:00:59;;;;;;;;;;;14.20;99.90;;;13.18;100.00;95588.78;10270584;28;2905;-78
2021/08/04 03:06:02;;;;;;;;;;;14.20;99.90;;;13.14;100.00;95590.47;10271898;28;2558;-77
2021/08/04 03:11:04;;;;;;;;;;;14.10;99.90;;;13.13;100.00;95586.16;10274583;28;2891;-77
2021/08/04 03:16:07;;;;;;;;;;;14.10;99.90;;;13.10;100.00;95592.13;10260750;28;2717;-76
2021/08/04 03:21:10;;;;;;;;;;;14.10;99.90;;;13.16;100.00;95599.06;10259985;28;2608;-76
2021/08/04 03:26:12;;;;;;;;;;;14.10;99.90;;;13.19;100.00;95601.19;10268764;28;2713;-76
2021/08/04 03:31:15;;;;;;;;;;;14.10;99.90;;;13.12;100.00;95595.38;10274119;28;2916;-75
2021/08/04 03:36:18;;;;;;;;;;;14.10;99.90;;;13.07;100.00;95595.44;10282098;28;2908;-78
2021/08/04 03:41:20;;;;;;;;;;;14.10;99.90;;;13.11;100.00;95591.88;10262698;28;2994;-76
2021/08/04 03:46:23;;;;;;;;;;;14.10;99.90;;;13.11;100.00;95596.47;10290304;28;2602;-76
2021/08/04 03:51:26;;;;;;;;;;;14.10;99.90;;;13.17;100.00;95592.59;10273432;28;2515;-77
2021/08/04 03:56:29;;;;;;;;;;;14.10;99.90;;;13.14;100.00;95582.38;10272709;28;2787;-75
2021/08/04 04:01:31;;;;;;;;;;;14.10;99.90;;;13.17;100.00;95579.09;10289660;28;2492;-76
2021/08/04 04:06:34;;;;;;;;;;;14.20;99.90;;;13.18;100.00;95572.59;10265158;28;2464;-76
2021/08/04 04:11:37;;;;;;;;;;;14.20;99.90;;;13.28;100.00;95569.75;10267933;28;2485;-77
2021/08/04 04:16:41;;;;;;;;;;;14.20;99.90;;;13.30;100.00;95575.66;10283318;28;2425;-76
2021/08/04 04:22:04;;;;;;;;;;;14.20;99.90;;;13.40;100.00;95564.69;10287664;28;2448;-75
2021/08/04 04:27:07;;;;;;;;;;;14.30;99.90;;;13.49;100.00;95579.13;10291222;28;2463;-76
2021/08/04 04:32:10;;;;;;;;;;;14.40;99.90;;;13.50;100.00;95577.22;10288238;28;2471;-77
2021/08/04 04:37:13;;;;;;;;;;;14.50;99.90;;;13.47;100.00;95581.28;10295937;28;2549;-76
2021/08/04 04:42:15;;;;;;;;;;;14.40;99.90;;;13.52;100.00;95581.22;10277917;28;2450;-77
2021/08/04 04:47:18;;;;;;;;;;;14.50;99.90;;;13.63;100.00;95589.94;10289202;28;2652;-76
2021/08/04 04:52:21;;;;;;;;;;;14.50;99.90;;;13.88;100.00;95577.09;10297102;28;2451;-76
2021/08/04 04:57:23;;;;;;;;;;;14.70;99.90;;;13.97;100.00;95589.59;10299165;28;2623;-78
2021/08/04 05:02:26;;;;;;;;;;;14.80;99.90;;;14.18;100.00;95589.19;10293473;28;2669;-77
2021/08/04 05:07:29;;;;;;;;;;;15.00;99.90;;;14.17;100.00;95588.38;10290617;28;2531;-77
2021/08/04 05:12:32;;;;;;;;;;;15.10;99.90;;;14.34;100.00;95599.41;10291713;28;2490;-77
2021/08/04 05:17:34;;;;;;;;;;;15.20;99.90;;;14.55;100.00;95594.41;10269108;28;2593;-77
2021/08/04 05:22:37;;;;;;;;;;;15.30;99.90;;;14.60;98.75;95596.22;10281496;28;2498;-77
2021/08/04 05:27:40;;;;;;;;;;;15.40;99.90;;;14.75;98.71;95592.38;10278858;28;2550;-76
2021/08/04 05:32:43;;;;;;;;;;;15.50;99.90;;;14.87;97.30;95598.84;10281871;28;2484;-77
2021/08/04 05:37:46;;;;;;;;;;;15.60;99.90;;;15.18;95.07;95600.06;10278556;28;2455;-80
2021/08/04 05:42:49;;;;;;;;;;;15.80;99.90;;;15.33;91.97;95602.41;10292164;28;2483;-77
2021/08/04 05:47:52;;;;;;;;;;;16.00;99.90;;;15.44;93.27;95603.75;10291322;28;2483;-77
2021/08/04 05:52:55;;;;;;;;;;;16.20;99.90;;;15.71;90.89;95602.03;10301833;28;2484;-77
2021/08/04 05:57:58;;;;;;;;;;;16.40;99.90;;;15.75;87.39;95586.78;10281260;28;2499;-78
2021/08/04 06:03:01;;;;;;;;;;;16.50;99.90;;;16.08;84.04;95585.31;10270822;28;2959;-77
2021/08/04 06:08:05;;;;;;;;;;;16.70;99.90;;;16.19;82.50;95594.00;10276535;28;2896;-78
2021/08/04 06:13:08;;;;;;;;;;;16.90;99.90;;;16.04;83.38;95584.38;10275146;28;2526;-80
2021/08/04 06:18:22;;;;;;;;;;;17.00;99.90;;;16.21;81.08;95589.03;10279884;28;2471;-77
2021/08/04 06:23:25;;;;;;;;;;;17.00;99.90;;;16.63;78.80;95584.88;10282731;28;2627;-75
2021/08/04 06:28:28;;;;;;;;;;;17.20;99.90;;;16.66;80.13;95595.06;10270348;28;2558;-78
2021/08/04 06:33:31;;;;;;;;;;;17.50;99.90;;;17.12;76.00;95592.94;10285252;28;2955;-79
2021/08/04 06:38:34;;;;;;;;;;;17.70;99.90;;;17.13;76.07;95579.03;10273182;28;2512;-76
2021/08/04 06:43:36;;;;;;;;;;;18.00;99.90;;;17.29;74.58;95593.72;10260312;28;2575;-76
2021/08/04 06:48:39;;;;;;;;;;;18.00;99.90;;;17.50;73.07;95584.94;10272954;28;2653;-76
2021/08/04 06:53:42;;;;;;;;;;;18.20;99.90;;;17.51;71.81;95586.53;10289834;28;2388;-79
2021/08/04 06:58:45;;;;;;;;;;;18.30;99.90;;;17.65;71.28;95581.69;10278176;28;2563;-77
2021/08/04 07:03:47;;;;;;;;;;;18.40;99.90;;;17.51;71.60;95581.09;10281750;28;2740;-76
2021/08/04 07:08:50;;;;;;;;;;;18.50;99.90;;;18.00;69.85;95595.22;10299677;28;2642;-75
2021/08/04 07:13:53;;;;;;;;;;;18.60;99.90;;;18.19;68.12;95590.19;10304961;28;2545;-77
2021/08/04 07:18:55;;;;;;;;;;;18.80;99.90;;;18.68;65.60;95589.81;10290887;28;2711;-77
2021/08/04 07:23:58;;;;;;;;;;;19.20;99.90;;;18.73;64.89;95584.19;10285503;28;2432;-76
2021/08/04 07:29:01;;;;;;;;;;;19.30;99.90;;;18.62;68.25;95573.66;10278048;28;2529;-77
2021/08/04 07:34:03;;;;;;;;;;;19.20;99.90;;;19.22;62.49;95584.50;10275933;28;2616;-76
2021/08/04 07:39:06;;;;;;;;;;;19.60;99.90;;;18.98;64.18;95577.78;10284743;28;2617;-77
2021/08/04 07:44:09;;;;;;;;;;;19.90;99.90;;;18.95;63.21;95578.41;10313779;28;2603;-75
2021/08/04 07:49:27;;;;;;;;;;;19.80;99.90;;;18.60;66.17;95586.00;10301890;28;2616;-76
2021/08/04 07:54:29;;;;;;;;;;;19.70;99.90;;;18.73;65.56;95571.38;10294080;28;2919;-76
2021/08/04 07:59:32;;;;;;;;;;;19.60;99.90;;;18.61;67.43;95579.44;10287947;28;3105;-77
2021/08/04 08:04:35;;;;;;;;;;;19.50;99.90;;;19.11;63.92;95578.63;10287525;28;2904;-77
2021/08/04 08:09:38;;;;;;;;;;;19.70;99.90;;;19.13;61.92;95568.19;10281494;28;2560;-77
2021/08/04 08:14:40;;;;;;;;;;;19.80;99.90;;;19.58;63.21;95568.31;10306198;28;2708;-76
2021/08/04 08:19:43;;;;;;;;;;;20.00;99.90;;;19.92;61.31;95561.72;10280652;28;2610;-76
2021/08/04 08:24:46;;;;;;;;;;;20.20;99.90;;;19.63;64.39;95572.75;10278730;28;2853;-76
2021/08/04 08:29:49;;;;;;;;;;;20.40;99.90;;;19.43;65.94;95569.69;10278424;28;3016;-75
2021/08/04 08:34:51;;;;;;;;;;;20.40;99.90;;;19.52;63.59;95568.81;10269363;28;2915;-77
2021/08/04 08:39:54;;;;;;;;;;;20.30;99.90;;;19.98;56.02;95576.72;10278724;28;2760;-78
2021/08/04 08:44:57;;;;;;;;;;;20.60;99.90;;;19.73;59.15;95569.63;10273319;28;2447;-77
2021/08/04 08:49:59;;;;;;;;;;;20.50;99.90;;;19.52;61.94;95575.06;10272791;28;2499;-78
2021/08/04 08:55:02;;;;;;;;;;;20.20;99.90;;;19.39;60.86;95567.97;10280432;28;2428;-76
2021/08/04 09:00:05;;;;;;;;;;;20.20;99.90;;;19.74;59.52;95571.19;10279417;28;2537;-78
2021/08/04 09:05:08;;;;;;;;;;;20.50;99.90;;;20.22;57.88;95558.75;10289838;28;2305;-78
2021/08/04 09:10:11;;;;;;;;;;;20.70;99.90;;;19.92;57.08;95550.00;10281392;28;2764;-77
2021/08/04 09:15:14;;;;;;;;;;;20.60;99.90;;;19.97;58.66;95544.31;10311118;28;2298;-76
2021/08/04 09:20:17;;;;;;;;;;;20.60;99.90;;;20.61;57.94;95540.94;10266361;28;2182;-78
2021/08/04 09:25:19;;;;;;;;;;;20.80;99.90;;;20.89;54.22;95542.94;10273477;28;2730;-78
2021/08/04 09:30:25;;;;;;;;;;;21.20;99.90;;;20.14;54.80;95535.13;10265552;28;2464;-76
2021/08/04 09:35:28;;;;;;;;;;;21.10;99.90;;;20.14;55.11;95535.13;10284105;28;2345;-76
2021/08/04 09:40:30;;;;;;;;;;;21.00;99.90;;;20.31;57.70;95536.84;10287213;28;2266;-77
2021/08/04 09:45:33;;;;;;;;;;;20.80;99.90;;;20.08;56.68;95520.09;10277522;28;2330;-78
2021/08/04 09:50:36;;;;;;;;;;;20.70;99.90;;;20.07;57.45;95516.59;10280534;28;2249;-76
2021/08/04 09:55:39;;;;;;;;;;;20.70;99.90;;;20.20;57.91;95506.47;10275554;28;2264;-76
2021/08/04 10:00:41;;;;;;;;;;;20.70;99.90;;;20.34;56.06;95506.91;10282269;28;2400;-78
2021/08/04 10:05:44;;;;;;;;;;;20.80;99.90;;;20.34;53.73;95517.81;10275070;28;2714;-75
2021/08/04 10:10:49;;;;;;;;;;;20.90;99.90;;;20.47;54.68;95511.25;10280930;28;2314;-77
2021/08/04 10:15:52;;;;;;;;;;;20.90;99.90;;;20.68;52.87;95504.88;10266906;28;2272;-77
2021/08/04 10:20:55;;;;;;;;;;;21.10;99.90;;;20.43;54.72;95504.88;10289483;28;2297;-77
2021/08/04 10:25:58;;;;;;;;;;;21.10;99.90;;;20.52;54.66;95516.47;10275353;28;2264;-77
2021/08/04 10:31:01;;;;;;;;;;;21.20;99.90;;;20.72;54.79;95517.47;10257995;28;2393;-77
2021/08/04 10:36:03;;;;;;;;;;;21.30;99.90;;;20.67;55.55;95504.03;10288763;28;2274;-77
2021/08/04 10:41:06;;;;;;;;;;;21.40;99.90;;;20.62;53.48;95504.31;10273853;28;2342;-77
2021/08/04 10:46:09;;;;;;;;;;;21.50;99.90;;;19.82;57.02;95513.03;10274424;28;2413;-77
2021/08/04 10:51:11;;;;;;;;;;;20.90;99.90;;;19.44;56.17;95514.06;10273641;28;2304;-77
2021/08/04 10:56:14;;;;;;;;;;;20.60;99.90;;;19.32;57.41;95514.00;10296834;28;2322;-76
2021/08/04 11:01:17;;;;;;;;;;;20.20;99.90;;;18.64;58.83;95510.72;10300040;28;2377;-75
2021/08/04 11:06:20;;;;;;;;;;;20.00;99.90;;;19.11;57.22;95505.88;10280831;28;2651;-77
2021/08/04 11:11:22;;;;;;;;;;;20.00;99.90;;;19.46;56.52;95500.06;10268466;28;2314;-76
2021/08/04 11:16:25;;;;;;;;;;;20.20;99.90;;;19.49;55.84;95487.72;10272430;28;2282;-77
2021/08/04 11:21:28;;;;;;;;;;;20.30;99.90;;;19.06;56.93;95499.84;10264488;28;2361;-77
2021/08/04 11:26:30;;;;;;;;;;;20.00;99.90;;;19.68;56.66;95491.53;10271551;28;2310;-77
2021/08/04 11:31:33;;;;;;;;;;;20.20;99.90;;;19.35;55.54;95498.94;10283704;28;2358;-76
2021/08/04 11:36:36;;;;;;;;;;;20.30;99.90;;;19.52;56.49;95490.56;10277399;28;2252;-76
2021/08/04 11:41:39;;;;;;;;;;;20.30;99.90;;;19.73;54.83;95473.38;10281256;28;2354;-76
2021/08/04 11:46:42;;;;;;;;;;;20.40;99.90;;;20.32;54.19;95475.66;10273332;28;2377;-76
2021/08/04 11:51:44;;;;;;;;;;;20.80;99.90;;;20.14;54.83;95464.16;10269669;28;2346;-76
2021/08/04 11:56:47;;;;;;;;;;;20.90;99.90;;;20.37;55.33;95459.84;10269941;28;2719;-76
2021/08/04 12:01:50;;;;;;;;;;;20.90;99.90;;;21.13;53.87;95449.97;10276521;28;2309;-75
2021/08/04 12:06:53;;;;;;;;;;;21.40;99.90;;;20.97;53.04;95444.44;10284439;28;2461;-77
2021/08/04 12:11:56;;;;;;;;;;;21.70;99.90;;;20.73;55.50;95439.06;10275511;28;2290;-76
2021/08/04 12:16:58;;;;;;;;;;;21.60;99.90;;;20.85;54.28;95433.56;10263048;28;2371;-76
2021/08/04 12:22:01;;;;;;;;;;;21.60;99.90;;;20.81;54.71;95432.69;10275745;28;2322;-76
2021/08/04 12:27:04;;;;;;;;;;;21.60;99.90;;;21.64;52.05;95419.28;10270433;28;2361;-76
2021/08/04 12:32:08;;;;;;;;;;;22.00;99.90;;;21.29;54.01;95420.75;10270598;28;2349;-76
2021/08/04 12:37:11;;;;;;;;;;;22.10;99.90;;;21.82;52.98;95420.50;10268814;28;2229;-76
2021/08/04 12:42:14;;;;;;;;;;;22.20;99.90;;;21.01;54.59;95425.41;10274785;28;2246;-75
2021/08/04 12:47:16;;;;;;;;;;;22.50;99.90;;;20.12;59.68;95417.34;10285496;28;2333;-76
2021/08/04 12:52:19;;;;;;;;;;;21.50;99.90;;;19.57;61.45;95424.91;10281080;28;2270;-77
2021/08/04 12:57:22;;;;;;;;;;;20.90;99.90;;;18.98;64.05;95419.00;10277708;28;2280;-75
2021/08/04 13:02:25;;;;;;;;;;;20.40;99.90;;;19.06;65.91;95420.84;10276779;28;2463;-76
2021/08/04 13:07:28;;;;;;;;;;;20.00;99.90;;;19.30;69.01;95425.56;10269770;28;2465;-76
2021/08/04 13:12:31;;;;;;;;;;;20.10;99.90;;;19.04;71.19;95413.00;10274971;28;2349;-76
2021/08/04 13:17:34;;;;;;;;;;;20.00;99.90;;;19.14;68.78;95417.22;10272445;28;2294;-76
2021/08/04 13:22:37;;;;;;;;;;;20.00;99.90;;;19.00;70.72;95417.53;10273497;28;2250;-76
2021/08/04 13:27:39;;;;;;;;;;;20.00;99.90;;;18.37;72.04;95416.75;10275377;28;2317;-76
2021/08/04 13:32:43;;;;;;;;;;;19.70;99.90;;;18.06;75.57;95422.56;10269710;28;2356;-76
2021/08/04 13:37:45;;;;;;;;;;;19.20;99.90;;;17.82;77.46;95418.56;10284210;28;2298;-77
2021/08/04 13:42:48;;;;;;;;;;;19.00;99.90;;;17.60;80.93;95407.91;10288137;28;2340;-75
2021/08/04 13:47:53;;;;;;;;;;;18.80;99.90;;;17.22;86.14;95411.41;10280095;28;2291;-76
2021/08/04 13:52:55;;;;;;;;;;;18.50;99.90;;;16.84;89.19;95411.34;10274362;28;2409;-77
2021/08/04 13:58:02;;;;;;;;;;;18.10;99.90;;;16.59;92.11;95410.22;10267936;28;2262;-75
2021/08/04 14:03:06;;;;;;;;;;;17.90;99.90;;;16.39;91.29;95413.59;10271823;28;2808;-77
2021/08/04 14:08:09;;;;;;;;;;;17.60;99.90;;;16.16;94.27;95408.31;10273898;28;2548;-77
2021/08/04 14:13:12;;;;;;;;;;;17.40;99.90;;;16.17;96.40;95415.34;10275574;28;2441;-77
2021/08/04 14:18:14;;;;;;;;;;;17.20;99.90;;;16.20;96.92;95417.41;10270644;28;2322;-76
2021/08/04 14:23:18;;;;;;;;;;;17.20;99.90;;;16.27;95.17;95410.69;10294244;28;2368;-77
2021/08/04 14:28:20;;;;;;;;;;;17.30;99.90;;;16.25;98.93;95421.09;10270336;28;2327;-76
2021/08/04 14:33:23;;;;;;;;;;;17.30;99.90;;;16.40;95.02;95426.81;10277486;28;2275;-76
2021/08/04 14:38:26;;;;;;;;;;;17.30;99.90;;;16.23;97.55;95423.31;10276968;28;2366;-75
2021/08/04 14:43:29;;;;;;;;;;;17.30;99.90;;;16.22;97.78;95427.91;10268804;28;2400;-76
2021/08/04 14:48:32;;;;;;;;;;;17.30;99.90;;;16.17;97.92;95417.25;10271629;28;2393;-76
2021/08/04 14:53:35;;;;;;;;;;;17.20;99.90;;;16.18;99.67;95413.41;10268759;28;2428;-76
2021/08/04 14:58:37;;;;;;;;;;;17.20;99.90;;;16.10;98.80;95420.44;10268091;28;2305;-78
2021/08/04 15:03:41;;;;;;;;;;;17.20;99.90;;;16.05;100.00;95417.88;10275315;28;2292;-77
2021/08/04 15:08:43;;;;;;;;;;;17.10;99.90;;;16.00;99.17;95420.72;10269522;28;2757;-76
2021/08/04 15:13:46;;;;;;;;;;;17.00;99.90;;;16.03;100.00;95414.69;10280246;28;2276;-77
2021/08/04 15:18:49;;;;;;;;;;;17.00;99.90;;;16.14;100.00;95410.53;10283221;28;2093;-76
2021/08/04 15:23:52;;;;;;;;;;;17.10;99.90;;;15.96;98.35;95403.47;10268193;28;2398;-76
2021/08/04 15:28:55;;;;;;;;;;;17.00;99.90;;;15.80;100.00;95407.78;10275700;28;2365;-76
2021/08/04 15:33:59;;;;;;;;;;;16.90;99.90;;;15.63;100.00;95400.38;10282874;28;2298;-77
2021/08/04 15:39:02;;;;;;;;;;;16.80;99.90;;;15.65;100.00;95404.41;10281363;28;2385;-79
2021/08/04 15:44:05;;;;;;;;;;;16.70;99.90;;;15.68;100.00;95406.47;10280702;28;2353;-77
2021/08/04 15:49:08;;;;;;;;;;;16.70;99.90;;;15.65;100.00;95409.03;10282196;28;2275;-77
2021/08/04 15:54:12;;;;;;;;;;;16.70;99.90;;;15.58;100.00;95401.28;10267744;28;2316;-76
2021/08/04 15:59:15;;;;;;;;;;;16.50;99.90;;;15.43;100.00;95407.16;10279614;28;2356;-77
2021/08/04 16:04:17;;;;;;;;;;;16.40;99.90;;;15.58;100.00;95398.59;10266974;28;2666;-78
2021/08/04 16:09:20;;;;;;;;;;;16.50;99.90;;;15.51;100.00;95403.66;10269552;28;2380;-77
2021/08/04 16:14:23;;;;;;;;;;;16.50;99.90;;;15.35;100.00;95394.38;10278899;28;2405;-76
2021/08/04 16:19:26;;;;;;;;;;;16.40;99.90;;;15.39;100.00;95400.75;10287740;28;2215;-76
2021/08/04 16:24:28;;;;;;;;;;;16.30;99.90;;;15.02;100.00;95397.41;10280948;28;1996;-76
2021/08/04 16:29:31;;;;;;;;;;;16.20;99.90;;;15.10;100.00;95393.94;10278650;28;2288;-78
2021/08/04 16:34:34;;;;;;;;;;;16.00;99.90;;;15.07;100.00;95394.56;10295541;28;2753;-76
2021/08/04 16:39:37;;;;;;;;;;;16.00;99.90;;;15.07;100.00;95388.34;10301419;28;2277;-80
2021/08/04 16:44:40;;;;;;;;;;;16.00;99.90;;;15.13;100.00;95390.59;10265288;28;2269;-77
2021/08/04 16:49:42;;;;;;;;;;;16.00;99.90;;;14.86;100.00;95388.88;10280802;28;2396;-77
2021/08/04 16:54:45;;;;;;;;;;;15.90;99.90;;;14.98;100.00;95390.22;10278143;28;2341;-78
2021/08/04 16:59:54;;;;;;;;;;;15.90;99.90;;;15.17;100.00;95392.69;10286644;28;2277;-77
2021/08/04 17:04:56;;;;;;;;;;;15.90;99.90;;;15.12;100.00;95388.22;10280217;28;2482;-77
2021/08/04 17:09:59;;;;;;;;;;;16.00;99.90;;;14.94;100.00;95389.22;10285527;28;2507;-78
2021/08/04 17:15:02;;;;;;;;;;;15.90;99.90;;;14.98;100.00;95385.59;10286961;28;2453;-77
2021/08/04 17:20:04;;;;;;;;;;;15.80;99.90;;;14.83;100.00;95383.31;10273623;28;2148;-77
2021/08/04 17:25:07;;;;;;;;;;;15.80;99.90;;;14.80;100.00;95389.31;10284364;28;2282;-77
2021/08/04 17:30:10;;;;;;;;;;;15.80;99.90;;;14.79;100.00;95380.41;10277129;28;1957;-76
2021/08/04 17:35:13;;;;;;;;;;;15.70;99.90;;;14.86;100.00;95382.66;10301139;28;1935;-76
2021/08/04 17:40:16;;;;;;;;;;;15.70;99.90;;;14.84;100.00;95384.91;10294353;28;1660;-77
2021/08/04 17:45:19;;;;;;;;;;;15.70;99.90;;;14.60;100.00;95382.50;10290468;28;2449;-78
2021/08/04 17:50:21;;;;;;;;;;;15.70;99.90;;;14.60;100.00;95382.50;10298720;28;2657;-78
2021/08/04 17:55:24;;;;;;;;;;;15.60;99.90;;;14.58;100.00;95376.63;10277947;28;2269;-80
2021/08/04 18:00:27;;;;;;;;;;;15.50;99.90;;;14.48;100.00;95372.25;10276520;28;2282;-79
2021/08/04 18:05:30;;;;;;;;;;;15.50;99.90;;;14.30;100.00;95382.09;10273930;28;2213;-78
2021/08/04 18:10:33;;;;;;;;;;;15.30;99.90;;;14.23;100.00;95375.53;10282952;28;2278;-78
2021/08/04 18:15:35;;;;;;;;;;;15.20;99.90;;;14.25;100.00;95378.72;10274332;28;2404;-79
2021/08/04 18:20:38;;;;;;;;;;;15.10;99.90;;;14.19;100.00;95379.97;10272724;28;2429;-77
2021/08/04 18:25:41;;;;;;;;;;;15.10;99.90;;;14.16;100.00;95375.16;10283038;28;2741;-77
2021/08/04 18:30:44;;;;;;;;;;;15.10;99.90;;;14.13;100.00;95376.56;10291775;28;2500;-78
2021/08/04 18:35:47;;;;;;;;;;;15.00;99.90;;;14.04;100.00;95373.78;10282642;28;2258;-78
2021/08/04 18:40:50;;;;;;;;;;;15.00;99.90;;;14.07;100.00;95372.41;10282036;28;2032;-79
2021/08/04 18:45:53;;;;;;;;;;;15.00;99.90;;;14.16;100.00;95375.16;10283773;28;2364;-78
2021/08/04 18:50:56;;;;;;;;;;;15.00;99.90;;;14.24;100.00;95369.00;10240130;28;1055867;-79
2021/08/04 18:55:59;;;;;;;;;;;15.00;99.90;;;14.06;100.00;95371.59;10274704;28;2615;-78
2021/08/04 19:01:02;;;;;;;;;;;15.00;99.90;;;13.84;100.00;95363.44;10270697;28;2800;-79
2021/08/04 19:06:08;;;;;;;;;;;14.90;99.90;;;13.73;100.00;95370.16;10272001;28;2426;-79
2021/08/04 19:11:11;;;;;;;;;;;14.80;99.90;;;13.63;100.00;95370.38;10272481;28;2230;-78
2021/08/04 19:16:14;;;;;;;;;;;14.70;99.90;;;13.49;100.00;95373.91;10280112;28;2430;-76
2021/08/04 19:21:16;;;;;;;;;;;14.60;99.90;;;13.49;100.00;95373.91;10272935;28;2368;-78
2021/08/04 19:26:20;;;;;;;;;;;14.50;99.90;;;13.47;100.00;95368.00;10273498;28;2356;-75
2021/08/04 19:31:23;;;;;;;;;;;14.50;99.90;;;13.40;100.00;95364.91;10279434;28;2364;-77
2021/08/04 19:36:26;;;;;;;;;;;14.40;99.90;;;13.53;100.00;95358.69;10280672;28;2611;-75
2021/08/04 19:41:28;;;;;;;;;;;14.40;99.90;;;13.43;100.00;95353.50;10281793;28;2494;-76
2021/08/04 19:46:31;;;;;;;;;;;14.50;99.90;;;13.33;100.00;95337.50;10280849;28;2362;-78
2021/08/04 19:51:34;;;;;;;;;;;14.40;99.90;;;13.31;100.00;95339.72;10280295;28;2457;-76
2021/08/04 19:56:37;;;;;;;;;;;14.30;99.90;;;13.21;100.00;95339.91;10268908;28;2347;-77
2021/08/04 20:01:40;;;;;;;;;;;14.20;99.90;;;13.31;100.00;95334.31;10284019;28;2243;-77
2021/08/04 20:06:44;;;;;;;;;;;14.30;99.90;;;13.27;100.00;95335.22;10286278;28;2439;-76
2021/08/04 20:11:46;;;;;;;;;;;14.30;99.90;;;13.40;100.00;95337.91;10284597;28;2267;-79
2021/08/04 20:16:49;;;;;;;;;;;14.30;99.90;;;13.23;100.00;95335.81;10311231;28;2222;-76
2021/08/04 20:21:52;;;;;;;;;;;14.30;99.90;;;13.29;100.00;95336.50;10291795;28;2309;-80
2021/08/04 20:26:55;;;;;;;;;;;14.20;99.90;;;13.28;100.00;95334.91;10276847;28;2238;-79
2021/08/04 20:31:58;;;;;;;;;;;14.30;99.90;;;13.33;100.00;95334.81;10286846;28;2413;-80
2021/08/04 20:37:00;;;;;;;;;;;14.30;99.90;;;13.36;100.00;95325.28;10304699;28;2250;-75
2021/08/04 20:42:03;;;;;;;;;;;14.30;99.90;;;13.60;100.00;95333.97;10307323;28;2304;-76
2021/08/04 20:47:06;;;;;;;;;;;14.40;99.90;;;13.45;100.00;95331.59;10278864;28;2333;-78
2021/08/04 20:52:09;;;;;;;;;;;14.50;99.90;;;13.45;100.00;95329.69;10305108;28;2461;-76
2021/08/04 20:57:11;;;;;;;;;;;14.40;99.90;;;13.51;100.00;95323.09;10296016;28;2221;-77
2021/08/04 21:02:15;;;;;;;;;;;14.50;99.90;;;13.45;100.00;95328.91;10295219;28;2389;-77
2021/08/04 21:07:18;;;;;;;;;;;14.40;99.90;;;13.45;100.00;95337.00;10283175;28;2470;-78
2021/08/04 21:12:20;;;;;;;;;;;14.40;99.90;;;13.32;100.00;95330.50;10273201;28;2317;-77
2021/08/04 21:17:23;;;;;;;;;;;14.30;99.90;;;13.24;100.00;95334.72;10278705;28;2879;-76
2021/08/04 21:22:26;;;;;;;;;;;14.20;99.90;;;13.14;100.00;95328.69;10283798;28;2341;-77
2021/08/04 21:27:28;;;;;;;;;;;14.20;99.90;;;13.07;100.00;95336.38;10288435;28;2340;-78
2021/08/04 21:32:31;;;;;;;;;;;14.10;99.90;;;13.16;100.00;95329.19;10281768;28;2343;-77
2021/08/04 21:37:35;;;;;;;;;;;14.10;99.90;;;13.03;100.00;95333.47;10274875;28;2244;-77
2021/08/04 21:42:38;;;;;;;;;;;14.10;99.90;;;13.20;100.00;95331.03;10288981;28;2349;-77
2021/08/04 21:47:41;;;;;;;;;;;14.10;99.90;;;13.09;100.00;95324.19;10269736;28;2288;-77
2021/08/04 21:52:44;;;;;;;;;;;14.10;99.90;;;12.95;100.00;95332.28;10271681;28;2288;-76
2021/08/04 21:57:47;;;;;;;;;;;14.00;99.90;;;12.94;100.00;95330.69;10266357;28;2746;-77
2021/08/04 22:02:50;;;;;;;;;;;14.00;99.90;;;12.97;100.00;95332.78;10264990;28;2516;-77
2021/08/04 22:07:53;;;;;;;;;;;13.90;99.90;;;12.97;100.00;95334.66;10273720;28;2381;-77
2021/08/04 22:12:56;;;;;;;;;;;13.90;99.90;;;12.89;100.00;95330.78;10260811;28;2330;-75
2021/08/04 22:17:59;;;;;;;;;;;13.90;99.90;;;12.80;100.00;95329.88;10272048;28;2428;-77
2021/08/04 22:23:01;;;;;;;;;;;13.80;99.90;;;12.81;100.00;95326.09;10271725;28;2286;-78
2021/08/04 22:28:04;;;;;;;;;;;13.80;99.90;;;12.84;100.00;95325.47;10266133;28;2255;-78
2021/08/04 22:33:07;;;;;;;;;;;13.80;99.90;;;12.81;100.00;95334.19;10269661;28;2515;-77
2021/08/04 22:38:10;;;;;;;;;;;13.80;99.90;;;12.87;100.00;95324.09;10273436;28;2321;-77
2021/08/04 22:43:13;;;;;;;;;;;13.80;99.90;;;12.89;100.00;95322.69;10265374;28;2282;-77
2021/08/04 22:48:16;;;;;;;;;;;13.90;99.90;;;12.82;100.00;95333.06;10283399;28;2262;-78
2021/08/04 22:53:18;;;;;;;;;;;13.90;99.90;;;12.84;100.00;95322.78;10265719;28;2369;-77
2021/08/04 22:58:21;;;;;;;;;;;13.80;99.90;;;12.89;100.00;95321.88;10264144;28;2405;-77
2021/08/04 23:03:24;;;;;;;;;;;13.90;99.90;;;12.91;100.00;95316.97;10280990;28;2350;-77